Time,TemperatureF,DewpointF,PressureIn,WindDirection,WindDirectionDegrees,WindSpeedMPH,WindSpeedGustMPH,Humidity,HourlyPrecipIn,Conditions,Clouds,dailyrainin,SolarRadiationWatts/m^2,SoftwareType,DateUTC
2013-08-17 00:21:00,77.0,44.0,-100.00,SW,222,0.0,0.0,31,0.00,,,0.00,0.000000,,2013-08-17 07:21:00,
2013-08-17 00:32:00,77.0,44.0,-100.00,SW,222,0.0,0.0,31,0.00,,,0.00,0.000000,,2013-08-17 07:32:00,
2013-08-17 00:41:00,77.0,44.0,-100.00,SW,222,0.0,0.0,31,0.00,,,0.00,0.000000,,2013-08-17 07:41:00,
2013-08-17 00:52:00,77.0,44.0,-100.00,SW,222,0.0,0.0,31,0.00,,,0.00,0.000000,,2013-08-17 07:52:00,
2013-08-17 01:21:00,77.0,44.0,-100.00,South,177,0.0,0.0,31,0.00,,,0.00,0.000000,,2013-08-17 08:21:00,
2013-08-17 01:32:00,77.0,44.0,-100.00,South,177,0.0,0.0,31,0.00,,,0.00,0.000000,,2013-08-17 08:32:00,
2013-08-17 01:41:00,77.0,44.0,-100.00,South,177,0.0,0.0,31,0.00,,,0.00,0.000000,,2013-08-17 08:41:00,
2013-08-17 01:51:00,77.0,44.0,-100.00,South,177,0.0,0.0,31,0.00,,,0.00,0.000000,,2013-08-17 08:51:00,
2013-08-17 02:21:00,75.0,43.0,-100.00,North,355,6.0,8.0,32,0.00,,,0.00,0.000000,,2013-08-17 09:21:00,
2013-08-17 02:33:00,75.0,43.0,-100.00,North,355,6.0,8.0,32,0.00,,,0.00,0.000000,,2013-08-17 09:33:00,
2013-08-17 02:43:00,75.0,43.0,-100.00,North,355,6.0,8.0,32,0.00,,,0.00,0.000000,,2013-08-17 09:43:00,
2013-08-17 02:53:00,75.0,43.0,-100.00,North,355,6.0,8.0,32,0.00,,,0.00,0.000000,,2013-08-17 09:53:00,
2013-08-17 03:23:00,75.0,44.0,-100.00,North,7,5.0,10.0,33,0.00,,,0.00,0.000000,,2013-08-17 10:23:00,
2013-08-17 03:32:00,75.0,44.0,-100.00,North,7,5.0,10.0,33,0.00,,,0.00,0.000000,,2013-08-17 10:32:00,
2013-08-17 03:42:00,75.0,44.0,-100.00,North,7,5.0,10.0,33,0.00,,,0.00,0.000000,,2013-08-17 10:42:00,
2013-08-17 03:52:00,75.0,44.0,-100.00,North,7,5.0,10.0,33,0.00,,,0.00,0.000000,,2013-08-17 10:52:00,
2013-08-17 04:21:00,75.0,45.0,-100.00,NNE,22,5.0,10.0,35,0.00,,,0.00,0.000000,,2013-08-17 11:21:00,
2013-08-17 04:32:00,75.0,45.0,-100.00,NNE,22,5.0,10.0,35,0.00,,,0.00,0.000000,,2013-08-17 11:32:00,
2013-08-17 04:42:00,75.0,45.0,-100.00,NNE,22,5.0,10.0,35,0.00,,,0.00,0.000000,,2013-08-17 11:42:00,
2013-08-17 04:52:00,75.0,45.0,-100.00,NNE,22,5.0,10.0,35,0.00,,,0.00,0.000000,,2013-08-17 11:52:00,
2013-08-17 05:21:00,73.0,45.0,-100.00,North,8,10.0,12.0,37,0.00,,,0.00,0.000000,,2013-08-17 12:21:00,
2013-08-17 05:32:00,73.0,45.0,-100.00,North,8,10.0,12.0,37,0.00,,,0.00,0.000000,,2013-08-17 12:32:00,
2013-08-17 05:42:00,73.0,45.0,-100.00,North,8,10.0,12.0,37,0.00,,,0.00,0.000000,,2013-08-17 12:42:00,
2013-08-17 05:51:00,73.0,45.0,-100.00,North,8,10.0,12.0,37,0.00,,,0.00,0.000000,,2013-08-17 12:51:00,
2013-08-17 06:21:00,72.0,46.0,-100.00,NNE,13,10.0,14.0,39,0.00,,,0.00,0.000000,,2013-08-17 13:21:00,
2013-08-17 06:32:00,72.0,46.0,-100.00,NNE,13,10.0,14.0,39,0.00,,,0.00,0.000000,,2013-08-17 13:32:00,
2013-08-17 06:42:00,72.0,46.0,-100.00,NNE,13,10.0,14.0,39,0.00,,,0.00,0.000000,,2013-08-17 13:42:00,
2013-08-17 06:52:00,72.0,46.0,-100.00,NNE,13,10.0,14.0,39,0.00,,,0.00,0.000000,,2013-08-17 13:52:00,
2013-08-17 07:21:00,72.0,46.0,-100.00,NNE,16,3.0,13.0,39,0.00,,,0.00,8.000000,,2013-08-17 14:21:00,
2013-08-17 07:31:00,72.0,46.0,-100.00,NNE,16,3.0,13.0,39,0.00,,,0.00,8.000000,,2013-08-17 14:31:00,
2013-08-17 07:41:00,72.0,46.0,-100.00,NNE,16,3.0,13.0,39,0.00,,,0.00,8.000000,,2013-08-17 14:41:00,
2013-08-17 07:52:00,72.0,46.0,-100.00,NNE,16,3.0,13.0,39,0.00,,,0.00,8.000000,,2013-08-17 14:52:00,
2013-08-17 08:22:00,73.0,46.0,-100.00,NNE,21,7.0,9.0,38,0.00,,,0.00,54.000000,,2013-08-17 15:22:00,
2013-08-17 08:33:00,73.0,46.0,-100.00,NNE,21,7.0,9.0,38,0.00,,,0.00,54.000000,,2013-08-17 15:33:00,
2013-08-17 08:43:00,73.0,46.0,-100.00,NNE,21,7.0,9.0,38,0.00,,,0.00,54.000000,,2013-08-17 15:43:00,
2013-08-17 08:53:00,73.0,46.0,-100.00,NNE,21,7.0,9.0,38,0.00,,,0.00,54.000000,,2013-08-17 15:53:00,
2013-08-17 09:23:00,81.0,46.0,-100.00,NNE,30,2.0,9.0,29,0.00,,,0.00,407.000000,,2013-08-17 16:23:00,
2013-08-17 09:33:00,81.0,46.0,-100.00,NNE,30,2.0,9.0,29,0.00,,,0.00,407.000000,,2013-08-17 16:33:00,
2013-08-17 09:42:00,81.0,46.0,-100.00,NNE,30,2.0,9.0,29,0.00,,,0.00,407.000000,,2013-08-17 16:42:00,
2013-08-17 09:53:00,81.0,46.0,-100.00,NNE,30,2.0,9.0,29,0.00,,,0.00,407.000000,,2013-08-17 16:53:00,
2013-08-17 10:23:00,83.0,44.0,-100.00,South,175,7.0,12.0,25,0.00,,,0.00,629.000000,,2013-08-17 17:23:00,
2013-08-17 10:32:00,83.0,44.0,-100.00,South,175,7.0,12.0,25,0.00,,,0.00,629.000000,,2013-08-17 17:32:00,
2013-08-17 10:42:00,83.0,44.0,-100.00,South,175,7.0,12.0,25,0.00,,,0.00,629.000000,,2013-08-17 17:42:00,
2013-08-17 10:52:00,83.0,44.0,-100.00,South,175,7.0,12.0,25,0.00,,,0.00,629.000000,,2013-08-17 17:52:00,
2013-08-17 11:21:00,87.0,45.0,-100.00,South,174,12.0,16.0,23,0.00,,,0.00,814.000000,,2013-08-17 18:21:00,
2013-08-17 11:32:00,87.0,45.0,-100.00,South,174,12.0,16.0,23,0.00,,,0.00,814.000000,,2013-08-17 18:32:00,
2013-08-17 11:42:00,87.0,45.0,-100.00,South,174,12.0,16.0,23,0.00,,,0.00,814.000000,,2013-08-17 18:42:00,
2013-08-17 11:52:00,87.0,45.0,-100.00,South,174,12.0,16.0,23,0.00,,,0.00,814.000000,,2013-08-17 18:52:00,
2013-08-17 12:21:00,89.0,40.0,-100.00,South,178,13.0,18.0,18,0.00,,,0.00,950.000000,,2013-08-17 19:21:00,
2013-08-17 12:31:00,89.0,40.0,-100.00,South,178,13.0,18.0,18,0.00,,,0.00,950.000000,,2013-08-17 19:31:00,
2013-08-17 12:41:00,89.0,40.0,-100.00,South,178,13.0,18.0,18,0.00,,,0.00,950.000000,,2013-08-17 19:41:00,
2013-08-17 12:52:00,89.0,40.0,-100.00,South,178,13.0,18.0,18,0.00,,,0.00,950.000000,,2013-08-17 19:52:00,
2013-08-17 13:21:00,92.0,41.0,-100.00,SSE,167,15.0,22.0,17,0.00,,,0.00,1028.000000,,2013-08-17 20:21:00,
2013-08-17 13:32:00,92.0,41.0,-100.00,SSE,167,15.0,22.0,17,0.00,,,0.00,1028.000000,,2013-08-17 20:32:00,
2013-08-17 13:41:00,92.0,41.0,-100.00,SSE,167,15.0,22.0,17,0.00,,,0.00,1028.000000,,2013-08-17 20:41:00,
2013-08-17 13:51:00,92.0,41.0,-100.00,SSE,167,15.0,22.0,17,0.00,,,0.00,1028.000000,,2013-08-17 20:51:00,
2013-08-17 14:21:00,96.0,43.0,-100.00,SSE,162,16.0,23.0,16,0.00,,,0.00,1033.000000,,2013-08-17 21:21:00,
2013-08-17 14:33:00,96.0,43.0,-100.00,SSE,162,16.0,23.0,16,0.00,,,0.00,1033.000000,,2013-08-17 21:33:00,
2013-08-17 14:42:00,96.0,43.0,-100.00,SSE,162,16.0,23.0,16,0.00,,,0.00,1033.000000,,2013-08-17 21:42:00,
2013-08-17 14:53:00,96.0,43.0,-100.00,SSE,162,16.0,23.0,16,0.00,,,0.00,1033.000000,,2013-08-17 21:53:00,
2013-08-17 15:22:00,95.0,42.0,-100.00,South,187,23.0,28.0,16,0.00,,,0.00,974.000000,,2013-08-17 22:22:00,
2013-08-17 15:32:00,95.0,42.0,-100.00,South,187,23.0,28.0,16,0.00,,,0.00,974.000000,,2013-08-17 22:32:00,
2013-08-17 15:42:00,95.0,42.0,-100.00,South,187,23.0,28.0,16,0.00,,,0.00,974.000000,,2013-08-17 22:42:00,
2013-08-17 15:52:00,95.0,42.0,-100.00,South,187,23.0,28.0,16,0.00,,,0.00,974.000000,,2013-08-17 22:52:00,
2013-08-17 16:22:00,97.0,38.0,-100.00,SSW,199,13.0,27.0,13,0.00,,,0.00,851.000000,,2013-08-17 23:22:00,
2013-08-17 16:32:00,97.0,38.0,-100.00,SSW,199,13.0,27.0,13,0.00,,,0.00,851.000000,,2013-08-17 23:32:00,
2013-08-17 16:42:00,97.0,38.0,-100.00,SSW,199,13.0,27.0,13,0.00,,,0.00,851.000000,,2013-08-17 23:42:00,
2013-08-17 16:51:00,97.0,38.0,-100.00,SSW,199,13.0,27.0,13,0.00,,,0.00,851.000000,,2013-08-17 23:51:00,
2013-08-17 17:21:00,96.0,33.0,-100.00,WNW,295,17.0,28.0,11,0.00,,,0.00,686.000000,,2013-08-18 00:21:00,
2013-08-17 17:32:00,96.0,33.0,-100.00,WNW,295,17.0,28.0,11,0.00,,,0.00,686.000000,,2013-08-18 00:32:00,
2013-08-17 17:41:00,96.0,33.0,-100.00,WNW,295,17.0,28.0,11,0.00,,,0.00,686.000000,,2013-08-18 00:41:00,
2013-08-17 17:52:00,96.0,33.0,-100.00,WNW,295,17.0,28.0,11,0.00,,,0.00,686.000000,,2013-08-18 00:52:00,
2013-08-17 18:21:00,94.0,34.0,-100.00,NW,326,20.0,27.0,12,0.00,,,0.00,470.000000,,2013-08-18 01:21:00,
2013-08-17 18:31:00,94.0,34.0,-100.00,NW,326,20.0,27.0,12,0.00,,,0.00,470.000000,,2013-08-18 01:31:00,
2013-08-17 18:41:00,94.0,34.0,-100.00,NW,326,20.0,27.0,12,0.00,,,0.00,470.000000,,2013-08-18 01:41:00,
2013-08-17 18:52:00,94.0,34.0,-100.00,NW,326,20.0,27.0,12,0.00,,,0.00,470.000000,,2013-08-18 01:52:00,
2013-08-17 19:21:00,90.0,34.0,-100.00,NW,309,14.0,26.0,14,0.00,,,0.00,216.000000,,2013-08-18 02:21:00,
2013-08-17 19:32:00,90.0,34.0,-100.00,NW,309,14.0,26.0,14,0.00,,,0.00,216.000000,,2013-08-18 02:32:00,
2013-08-17 19:41:00,90.0,34.0,-100.00,NW,309,14.0,26.0,14,0.00,,,0.00,216.000000,,2013-08-18 02:41:00,
2013-08-17 19:52:00,90.0,34.0,-100.00,NW,309,14.0,26.0,14,0.00,,,0.00,216.000000,,2013-08-18 02:52:00,
2013-08-17 20:21:00,87.0,42.0,-100.00,SSE,165,10.0,25.0,21,0.00,,,0.00,10.000000,,2013-08-18 03:21:00,
2013-08-17 20:33:00,87.0,42.0,-100.00,SSE,165,10.0,25.0,21,0.00,,,0.00,10.000000,,2013-08-18 03:33:00,
2013-08-17 20:43:00,87.0,42.0,-100.00,SSE,165,10.0,25.0,21,0.00,,,0.00,10.000000,,2013-08-18 03:43:00,
2013-08-17 20:53:00,87.0,42.0,-100.00,SSE,165,10.0,25.0,21,0.00,,,0.00,10.000000,,2013-08-18 03:53:00,
2013-08-17 21:23:00,84.0,43.0,-100.00,SSE,158,13.0,16.0,24,0.00,,,0.00,0.000000,,2013-08-18 04:23:00,
2013-08-17 21:32:00,84.0,43.0,-100.00,SSE,158,13.0,16.0,24,0.00,,,0.00,0.000000,,2013-08-18 04:32:00,
2013-08-17 21:42:00,84.0,43.0,-100.00,SSE,158,13.0,16.0,24,0.00,,,0.00,0.000000,,2013-08-18 04:42:00,
2013-08-17 21:53:00,84.0,43.0,-100.00,SSE,158,13.0,16.0,24,0.00,,,0.00,0.000000,,2013-08-18 04:53:00,
2013-08-17 22:22:00,81.0,44.0,-100.00,South,173,6.0,13.0,27,0.00,,,0.00,0.000000,,2013-08-18 05:22:00,
2013-08-17 22:33:00,81.0,44.0,-100.00,South,173,6.0,13.0,27,0.00,,,0.00,0.000000,,2013-08-18 05:33:00,
2013-08-17 22:42:00,81.0,44.0,-100.00,South,173,6.0,13.0,27,0.00,,,0.00,0.000000,,2013-08-18 05:42:00,
2013-08-17 22:51:00,81.0,44.0,-100.00,South,173,6.0,13.0,27,0.00,,,0.00,0.000000,,2013-08-18 05:51:00,
2013-08-17 23:21:00,80.0,43.0,-100.00,North,359,4.0,9.0,27,0.00,,,0.00,0.000000,,2013-08-18 06:21:00,
2013-08-17 23:31:00,80.0,43.0,-100.00,North,359,4.0,9.0,27,0.00,,,0.00,0.000000,,2013-08-18 06:31:00,
2013-08-17 23:42:00,80.0,43.0,-100.00,North,359,4.0,9.0,27,0.00,,,0.00,0.000000,,2013-08-18 06:42:00,
2013-08-17 23:52:00,80.0,43.0,-100.00,North,359,4.0,9.0,27,0.00,,,0.00,0.000000,,2013-08-18 06:52:00,